Terminal Aerodrome Forecast
Issued by NWS Corpus Christi, TX

Home | Current Version | Previous Version | Text Only | Print | Product List | Glossary On
Versions: 1 2 3 4 5 6 7 8 9 10 11 12 13
000
FTUS44 KCRP 250520
TAFVCT
TAF
KVCT 250520Z 2506/2606 19006KT P6SM SKC
     FM251400 18015G22KT P6SM SKC
     FM251800 16023G28KT P6SM SKC
     FM260400 16016G22KT P6SM OVC015=

USA.gov is the U.S. government's official web portal to all federal, state and local government web resources and services.